createdAt,value
2018-09-24T00:01:18.233Z,19.79
2018-09-24T00:03:44.189Z,19.77
2018-09-24T00:06:10.132Z,19.75
2018-09-24T00:08:36.098Z,19.79
2018-09-24T00:11:02.073Z,19.75
2018-09-24T00:13:28.031Z,19.77
2018-09-24T00:15:53.973Z,19.82
2018-09-24T00:18:19.968Z,19.86
2018-09-24T00:20:45.912Z,19.89
2018-09-24T00:23:11.886Z,19.90
2018-09-24T00:25:37.837Z,19.91
2018-09-24T00:28:03.787Z,19.89
2018-09-24T00:30:29.751Z,19.80
2018-09-24T00:32:55.696Z,19.77
2018-09-24T00:35:21.660Z,19.70
2018-09-24T00:37:47.618Z,19.72
2018-09-24T00:40:13.597Z,19.70
2018-09-24T00:42:39.549Z,19.75
2018-09-24T00:45:05.493Z,19.75
2018-09-24T00:47:31.471Z,19.78
2018-09-24T00:49:57.412Z,19.81
2018-09-24T00:52:23.418Z,19.76
2018-09-24T00:54:49.355Z,19.74
2018-09-24T00:57:15.309Z,19.74
2018-09-24T00:59:41.256Z,19.80
2018-09-24T01:02:07.204Z,19.87
2018-09-24T01:04:33.296Z,19.85
2018-09-24T01:06:59.247Z,19.87
2018-09-24T01:09:25.217Z,19.90
2018-09-24T01:11:51.184Z,19.80
2018-09-24T01:14:17.133Z,19.85
2018-09-24T01:16:43.072Z,19.84
2018-09-24T01:19:09.042Z,19.90
2018-09-24T01:21:35.009Z,20.00
2018-09-24T01:24:00.954Z,19.99
2018-09-24T01:26:26.887Z,19.93
2018-09-24T01:28:52.841Z,19.90
2018-09-24T01:31:18.785Z,19.92
2018-09-24T01:33:44.728Z,19.96
2018-09-24T01:36:10.664Z,19.98
2018-09-24T01:38:36.603Z,19.99
2018-09-24T01:41:02.562Z,19.99
2018-09-24T01:43:28.495Z,20.01
2018-09-24T01:45:54.450Z,20.04
2018-09-24T01:48:20.404Z,20.06
2018-09-24T01:50:46.336Z,20.06
2018-09-24T01:53:12.306Z,20.10
2018-09-24T01:55:38.247Z,19.97
2018-09-24T01:58:04.197Z,20.06
2018-09-24T02:00:30.291Z,20.07
2018-09-24T02:02:56.249Z,20.04
2018-09-24T02:05:22.224Z,20.09
2018-09-24T02:07:48.163Z,20.08
2018-09-24T02:10:14.101Z,20.09
2018-09-24T02:12:40.048Z,20.06
2018-09-24T02:15:06.001Z,19.99
2018-09-24T02:17:31.961Z,19.88
2018-09-24T02:19:57.903Z,19.94
2018-09-24T02:22:23.876Z,19.99
2018-09-24T02:24:49.851Z,19.96
2018-09-24T02:27:15.787Z,19.92
2018-09-24T02:29:41.745Z,19.81
2018-09-24T02:32:07.735Z,19.83
2018-09-24T02:34:33.710Z,19.87
2018-09-24T02:36:59.758Z,19.88
2018-09-24T02:39:25.736Z,19.87
2018-09-24T02:41:51.714Z,19.78
2018-09-24T02:44:17.673Z,19.81
2018-09-24T02:46:43.628Z,19.74
2018-09-24T02:49:09.589Z,19.81
2018-09-24T02:51:35.532Z,19.81
2018-09-24T02:54:01.494Z,19.81
2018-09-24T02:56:27.464Z,19.83
2018-09-24T02:58:53.437Z,19.75
2018-09-24T03:01:19.404Z,19.75
2018-09-24T03:03:45.340Z,19.83
2018-09-24T03:06:11.269Z,19.85
2018-09-24T03:08:37.208Z,19.87
2018-09-24T03:11:03.150Z,19.91
2018-09-24T03:13:29.100Z,19.86
2018-09-24T03:15:55.039Z,19.90
2018-09-24T03:18:21.001Z,19.89
2018-09-24T03:20:46.939Z,19.88
2018-09-24T03:23:12.910Z,19.84
2018-09-24T03:25:42.435Z,19.83
2018-09-24T03:28:08.692Z,19.77
2018-09-24T03:33:08.124Z,19.75
2018-09-24T03:35:34.120Z,19.75
2018-09-24T03:38:00.102Z,19.73
2018-09-24T03:40:26.052Z,19.73
2018-09-24T03:42:51.985Z,19.69
2018-09-24T03:45:17.949Z,19.59
2018-09-24T03:47:43.912Z,19.63
2018-09-24T03:50:09.896Z,19.66
2018-09-24T03:52:35.856Z,19.64
2018-09-24T03:55:01.824Z,19.52
2018-09-24T03:57:27.779Z,19.55
2018-09-24T03:59:53.760Z,19.61
2018-09-24T04:02:19.688Z,19.64
2018-09-24T04:04:45.715Z,19.67
2018-09-24T04:07:11.675Z,19.70
2018-09-24T04:09:37.672Z,19.63
2018-09-24T04:12:03.631Z,19.62
2018-09-24T04:14:29.580Z,19.59
2018-09-24T04:16:55.512Z,19.60
2018-09-24T04:19:21.527Z,19.73
2018-09-24T04:21:47.434Z,19.74
2018-09-24T04:24:13.376Z,19.75
2018-09-24T04:26:39.356Z,19.70
2018-09-24T04:29:05.348Z,19.71
2018-09-24T04:31:31.545Z,19.66
2018-09-24T04:33:57.522Z,19.69
2018-09-24T04:36:23.477Z,19.70
2018-09-24T04:38:49.469Z,19.66
2018-09-24T04:41:15.421Z,19.69
2018-09-24T04:43:41.373Z,19.69
2018-09-24T04:46:07.333Z,19.62
2018-09-24T04:48:33.300Z,19.65
2018-09-24T04:50:59.347Z,19.67
2018-09-24T04:53:25.316Z,19.60
2018-09-24T04:55:51.440Z,19.55
2018-09-24T04:58:17.389Z,19.60
2018-09-24T05:00:43.320Z,19.56
2018-09-24T05:03:09.267Z,19.62
2018-09-24T05:05:35.283Z,19.65
2018-09-24T05:08:01.240Z,19.62
2018-09-24T05:10:27.206Z,19.49
2018-09-24T05:12:53.177Z,19.55
2018-09-24T05:15:19.111Z,19.48
2018-09-24T05:17:45.077Z,19.53
2018-09-24T05:20:11.056Z,19.50
2018-09-24T05:22:37.024Z,19.29
2018-09-24T05:25:03.013Z,19.42
2018-09-24T05:27:29.058Z,19.48
2018-09-24T05:29:55.052Z,19.45
2018-09-24T05:32:21.028Z,19.40
2018-09-24T05:34:46.984Z,19.38
2018-09-24T05:37:12.960Z,19.46
2018-09-24T05:39:38.924Z,19.49
2018-09-24T05:42:04.890Z,19.48
2018-09-24T05:44:30.851Z,19.48
2018-09-24T05:46:56.795Z,19.37
2018-09-24T05:49:22.719Z,19.47
2018-09-24T05:51:54.927Z,19.51
2018-09-24T05:54:20.907Z,19.41
2018-09-24T05:56:46.850Z,19.44
2018-09-24T05:59:12.777Z,19.48
2018-09-24T06:01:39.646Z,19.59
2018-09-24T06:04:05.676Z,19.60
2018-09-24T06:06:31.626Z,19.65
2018-09-24T06:08:57.613Z,19.58
2018-09-24T06:11:23.554Z,19.65
2018-09-24T06:13:49.515Z,19.67
2018-09-24T06:16:15.460Z,19.66
2018-09-24T06:18:41.404Z,19.89
2018-09-24T06:21:07.346Z,20.20
2018-09-24T06:23:33.283Z,20.51
2018-09-24T06:26:02.768Z,20.74
2018-09-24T06:28:28.792Z,20.71
2018-09-24T06:30:54.715Z,20.63
2018-09-24T06:33:20.645Z,20.50
2018-09-24T06:35:46.584Z,20.57
2018-09-24T06:38:12.548Z,20.85
2018-09-24T06:40:38.506Z,21.04
2018-09-24T06:43:04.472Z,21.24
2018-09-24T06:45:30.421Z,21.31
2018-09-24T06:47:56.373Z,21.17
2018-09-24T06:50:22.304Z,21.02
2018-09-24T06:52:48.248Z,20.94
2018-09-24T06:55:14.202Z,20.87
2018-09-24T06:57:40.172Z,20.77
2018-09-24T07:00:06.134Z,20.63
2018-09-24T07:02:32.071Z,20.65
2018-09-24T07:04:58.039Z,20.70
2018-09-24T07:07:23.994Z,20.71
2018-09-24T07:09:49.980Z,20.87
2018-09-24T07:12:15.942Z,20.96
2018-09-24T07:14:41.904Z,21.03
2018-09-24T07:17:07.838Z,21.25
2018-09-24T07:19:33.813Z,21.30
2018-09-24T07:21:59.791Z,21.29
2018-09-24T07:24:25.734Z,21.28
2018-09-24T07:26:51.680Z,21.21
2018-09-24T07:29:17.628Z,21.19
2018-09-24T07:31:43.575Z,21.14
2018-09-24T07:34:09.513Z,21.47
2018-09-24T07:36:35.456Z,21.69
2018-09-24T07:39:01.407Z,21.75
2018-09-24T07:41:27.356Z,21.95
2018-09-24T07:43:53.289Z,21.72
2018-09-24T07:46:19.278Z,21.80
2018-09-24T07:48:45.224Z,22.13
2018-09-24T07:51:11.195Z,22.50
2018-09-24T07:53:37.181Z,22.62
2018-09-24T07:56:03.173Z,22.70
2018-09-24T07:58:29.101Z,22.78
2018-09-24T08:00:55.102Z,22.72
2018-09-24T08:03:21.047Z,22.64
2018-09-24T08:05:47.029Z,22.61
2018-09-24T08:08:12.989Z,22.56
2018-09-24T08:10:38.941Z,22.46
2018-09-24T08:13:04.887Z,22.35
2018-09-24T08:15:30.822Z,22.14
2018-09-24T08:17:56.752Z,21.92
2018-09-24T08:20:22.680Z,21.81
2018-09-24T08:22:48.638Z,21.77
2018-09-24T08:25:14.594Z,21.83
2018-09-24T08:27:40.556Z,21.74
2018-09-24T08:30:06.511Z,21.80
2018-09-24T08:32:32.498Z,21.71
2018-09-24T08:34:59.472Z,21.85
2018-09-24T08:37:25.424Z,21.98
2018-09-24T08:39:51.362Z,21.89
2018-09-24T08:42:17.312Z,21.96
2018-09-24T08:44:43.252Z,21.93
2018-09-24T08:47:09.189Z,21.88
2018-09-24T08:49:35.166Z,21.92
2018-09-24T08:52:01.109Z,22.03
2018-09-24T08:54:27.065Z,21.74
2018-09-24T08:56:53.074Z,21.78
2018-09-24T08:59:19.004Z,21.91
2018-09-24T09:01:44.993Z,21.95
2018-09-24T09:04:10.963Z,21.82
2018-09-24T09:06:36.968Z,21.89
2018-09-24T09:09:03.929Z,21.81
2018-09-24T09:11:29.908Z,21.93
2018-09-24T09:13:55.876Z,21.88
2018-09-24T09:16:21.865Z,21.78
2018-09-24T09:18:47.813Z,21.73
2018-09-24T09:21:13.777Z,21.77
2018-09-24T09:23:39.722Z,21.75
2018-09-24T09:26:05.692Z,21.69
2018-09-24T09:28:31.694Z,21.70
2018-09-24T09:30:57.634Z,21.71
2018-09-24T09:33:23.858Z,21.58
2018-09-24T09:35:49.833Z,21.67
2018-09-24T09:38:15.804Z,21.70
2018-09-24T09:40:41.769Z,21.63
2018-09-24T09:43:07.760Z,21.49
2018-09-24T09:45:33.716Z,21.58
2018-09-24T09:47:59.659Z,21.63
2018-09-24T09:50:25.597Z,21.58
2018-09-24T09:52:51.571Z,21.50
2018-09-24T09:55:17.529Z,21.42
2018-09-24T09:57:43.469Z,21.34
2018-09-24T10:00:09.440Z,21.32
2018-09-24T10:02:35.400Z,21.38
2018-09-24T10:05:01.392Z,21.38
2018-09-24T10:07:28.455Z,21.32
2018-09-24T10:09:54.426Z,21.40
2018-09-24T10:12:20.416Z,21.48
2018-09-24T10:14:46.487Z,21.57
2018-09-24T10:17:12.510Z,21.55
2018-09-24T10:19:38.620Z,21.40
2018-09-24T10:22:04.577Z,21.37
2018-09-24T10:24:30.560Z,21.31
2018-09-24T10:26:56.542Z,21.37
2018-09-24T10:29:22.531Z,21.42
2018-09-24T10:31:51.155Z,21.45
2018-09-24T10:34:17.178Z,21.50
2018-09-24T10:36:43.170Z,21.61
2018-09-24T10:41:40.482Z,21.65
2018-09-24T10:44:06.448Z,21.61
2018-09-24T10:46:35.462Z,21.42
2018-09-24T10:49:01.460Z,21.30
2018-09-24T10:51:27.960Z,21.46
2018-09-24T10:53:53.910Z,21.58
2018-09-24T10:56:19.853Z,21.62
2018-09-24T10:58:45.814Z,21.54
2018-09-24T11:01:11.768Z,21.44
2018-09-24T11:03:37.716Z,21.52
2018-09-24T11:06:03.677Z,21.49
2018-09-24T11:08:29.649Z,21.48
2018-09-24T11:10:55.607Z,21.40
2018-09-24T11:13:21.568Z,21.55
2018-09-24T11:15:47.574Z,21.44
2018-09-24T11:18:13.589Z,21.44
2018-09-24T11:20:39.471Z,21.50
2018-09-24T11:23:05.412Z,21.44
2018-09-24T11:25:31.372Z,21.53
2018-09-24T11:27:57.312Z,21.58
2018-09-24T11:30:23.354Z,21.59
2018-09-24T11:32:49.293Z,21.66
2018-09-24T11:35:15.254Z,21.66
2018-09-24T11:37:41.203Z,21.53
2018-09-24T11:40:07.168Z,21.63
2018-09-24T11:42:33.116Z,21.49
2018-09-24T11:44:59.080Z,21.38
2018-09-24T11:47:25.042Z,21.31
2018-09-24T11:54:54.251Z,21.07
2018-09-24T11:57:20.226Z,21.02
2018-09-24T11:59:46.166Z,21.12
2018-09-24T12:02:12.194Z,21.16
2018-09-24T12:04:38.115Z,21.25
2018-09-24T12:07:04.049Z,21.33
2018-09-24T12:09:30.015Z,21.37
2018-09-24T12:11:55.978Z,21.49
2018-09-24T12:14:22.049Z,21.65
2018-09-24T12:16:47.978Z,21.69
2018-09-24T12:19:13.973Z,21.69
2018-09-24T12:21:40.026Z,21.80
2018-09-24T12:24:06.070Z,21.81
2018-09-24T12:26:31.998Z,21.66
2018-09-24T12:28:57.953Z,21.67
2018-09-24T12:31:23.917Z,21.82
2018-09-24T12:33:49.926Z,21.92
2018-09-24T12:36:15.902Z,21.88
2018-09-24T12:38:41.851Z,21.88
2018-09-24T12:41:07.805Z,21.85
2018-09-24T12:43:33.758Z,21.82
2018-09-24T12:45:59.744Z,21.80
2018-09-24T12:48:25.701Z,21.57
2018-09-24T12:50:51.680Z,21.65
2018-09-24T12:53:17.659Z,21.54
2018-09-24T12:55:43.613Z,21.62
2018-09-24T12:58:09.617Z,21.76
2018-09-24T13:00:35.568Z,21.83
2018-09-24T13:03:01.525Z,21.86
2018-09-24T13:05:27.478Z,21.93
2018-09-24T13:07:53.431Z,21.98
2018-09-24T13:10:19.372Z,22.04
2018-09-24T13:12:45.333Z,21.88
2018-09-24T13:15:11.269Z,22.08
2018-09-24T13:17:37.212Z,22.26
2018-09-24T13:20:03.168Z,22.23
2018-09-24T13:22:29.117Z,22.09
2018-09-24T13:24:56.122Z,21.97
2018-09-24T13:27:22.159Z,21.93
2018-09-24T13:29:49.209Z,21.97
2018-09-24T13:32:15.162Z,21.99
2018-09-24T13:34:41.110Z,21.98
2018-09-24T13:39:41.905Z,22.00
2018-09-24T13:42:07.832Z,22.11
2018-09-24T13:44:34.864Z,21.91
2018-09-24T13:47:00.870Z,21.95
2018-09-24T13:49:26.847Z,21.96
2018-09-24T13:51:52.732Z,21.95
2018-09-24T13:54:18.700Z,21.96
2018-09-24T13:56:44.663Z,22.01
2018-09-24T13:59:10.617Z,21.78
2018-09-24T14:01:36.549Z,21.98
2018-09-24T14:04:02.520Z,22.08
2018-09-24T14:06:28.475Z,22.13
2018-09-24T14:08:54.433Z,22.17
2018-09-24T14:11:20.384Z,21.84
2018-09-24T14:13:46.319Z,21.92
2018-09-24T14:16:12.283Z,21.93
2018-09-24T14:18:38.261Z,21.91
2018-09-24T14:21:04.233Z,21.92
2018-09-24T14:23:30.191Z,21.98
2018-09-24T14:25:56.259Z,22.09
2018-09-24T14:28:22.220Z,22.05
2018-09-24T14:30:48.334Z,22.06
2018-09-24T14:33:14.310Z,22.09
2018-09-24T14:35:42.432Z,22.12
2018-09-24T14:38:08.388Z,22.09
2018-09-24T14:40:34.611Z,22.17
2018-09-24T14:43:00.623Z,21.98
2018-09-24T14:45:26.588Z,22.06
2018-09-24T14:47:52.518Z,22.04
2018-09-24T14:50:18.474Z,21.79
2018-09-24T14:52:44.450Z,21.93
2018-09-24T14:55:10.632Z,21.93
2018-09-24T14:57:36.571Z,21.91
2018-09-24T15:00:02.547Z,21.82
2018-09-24T15:02:28.504Z,21.88
2018-09-24T15:04:54.453Z,21.71
2018-09-24T15:07:20.416Z,21.74
2018-09-24T15:09:46.366Z,21.74
2018-09-24T15:12:12.345Z,21.76
2018-09-24T15:14:38.298Z,21.63
2018-09-24T15:17:04.278Z,21.68
2018-09-24T15:19:30.223Z,21.67
2018-09-24T15:21:56.250Z,21.60
2018-09-24T15:24:22.168Z,21.44
2018-09-24T15:26:48.122Z,21.40
2018-09-24T15:29:14.060Z,21.53
2018-09-24T15:31:39.997Z,21.57
2018-09-24T15:34:05.953Z,21.49
2018-09-24T15:36:31.894Z,21.51
2018-09-24T15:38:59.964Z,21.47
2018-09-24T15:41:25.933Z,21.40
2018-09-24T15:43:51.886Z,21.28
2018-09-24T15:46:17.857Z,21.34
2018-09-24T15:48:43.806Z,21.26
2018-09-24T15:51:11.806Z,21.28
2018-09-24T15:53:37.819Z,21.26
2018-09-24T15:56:03.740Z,21.29
2018-09-24T15:58:29.711Z,21.27
2018-09-24T16:00:55.670Z,21.25
2018-09-24T16:03:21.633Z,21.21
2018-09-24T16:05:47.603Z,21.14
2018-09-24T16:08:13.566Z,21.15
2018-09-24T16:10:39.525Z,21.17
2018-09-24T16:13:05.533Z,20.99
2018-09-24T16:15:31.510Z,20.99
2018-09-24T16:17:57.476Z,21.05
2018-09-24T16:20:23.419Z,21.03
2018-09-24T16:22:49.387Z,20.90
2018-09-24T16:25:15.389Z,20.92
2018-09-24T16:27:41.337Z,20.75
2018-09-24T16:30:07.292Z,20.81
2018-09-24T16:32:33.253Z,20.83
2018-09-24T16:34:59.222Z,20.79
2018-09-24T16:37:25.246Z,20.70
2018-09-24T16:39:51.192Z,20.65
2018-09-24T16:42:17.129Z,20.76
2018-09-24T16:44:43.104Z,20.95
2018-09-24T16:47:09.051Z,21.03
2018-09-24T16:49:35.007Z,20.66
2018-09-24T16:52:00.950Z,20.66
2018-09-24T16:54:27.269Z,20.72
2018-09-24T16:56:53.340Z,20.55
2018-09-24T16:59:19.304Z,20.59
2018-09-24T17:01:45.289Z,20.51
2018-09-24T17:04:11.222Z,20.46
2018-09-24T17:06:37.171Z,20.38
2018-09-24T17:09:04.162Z,20.43
2018-09-24T17:11:30.221Z,20.33
2018-09-24T17:13:56.222Z,20.35
2018-09-24T17:16:22.215Z,20.32
2018-09-24T17:18:48.225Z,20.24
2018-09-24T17:21:14.198Z,20.28
2018-09-24T17:23:40.242Z,20.24
2018-09-24T17:26:06.256Z,20.23
2018-09-24T17:28:32.223Z,18.85
2018-09-24T17:30:58.185Z,20.13
2018-09-24T17:33:24.163Z,20.09
2018-09-24T17:35:50.136Z,20.05
2018-09-24T17:38:16.127Z,20.01
2018-09-24T17:40:42.176Z,20.06
2018-09-24T17:43:08.126Z,20.00
2018-09-24T17:45:34.965Z,20.04
2018-09-24T17:48:00.969Z,20.07
2018-09-24T17:50:26.997Z,20.13
2018-09-24T17:52:52.993Z,20.09
2018-09-24T17:55:18.942Z,20.04
2018-09-24T17:57:44.898Z,19.96
2018-09-24T18:00:10.877Z,19.93
2018-09-24T18:02:36.807Z,19.83
2018-09-24T18:05:02.790Z,19.86
2018-09-24T18:07:28.718Z,19.88
2018-09-24T18:09:54.676Z,19.91
2018-09-24T18:12:20.637Z,19.93
2018-09-24T18:14:46.598Z,19.92
2018-09-24T18:17:12.548Z,19.89
2018-09-24T18:19:38.510Z,19.86
2018-09-24T18:22:04.476Z,19.76
2018-09-24T18:24:30.491Z,19.78
2018-09-24T18:26:56.465Z,19.77
2018-09-24T18:29:22.405Z,19.65
2018-09-24T18:31:48.403Z,19.59
2018-09-24T18:34:14.365Z,19.61
2018-09-24T18:36:40.387Z,19.70
2018-09-24T18:39:06.345Z,19.71
2018-09-24T18:41:32.322Z,19.63
2018-09-24T18:43:58.299Z,19.59
2018-09-24T18:46:24.267Z,19.61
2018-09-24T18:48:50.228Z,19.59
2018-09-24T18:51:16.176Z,19.56
2018-09-24T18:53:42.160Z,19.54
2018-09-24T18:56:08.138Z,19.53
2018-09-24T19:01:06.457Z,19.45
2018-09-24T19:03:32.356Z,19.42
2018-09-24T19:05:58.341Z,19.40
2018-09-24T19:08:24.320Z,19.37
2018-09-24T19:10:50.363Z,19.50
2018-09-24T19:13:16.385Z,19.51
2018-09-24T19:15:42.342Z,19.42
2018-09-24T19:18:08.350Z,19.44
2018-09-24T19:20:34.342Z,19.44
2018-09-24T19:23:00.339Z,19.50
2018-09-24T19:25:26.318Z,19.52
2018-09-24T19:27:52.379Z,19.50
2018-09-24T19:30:18.396Z,19.50
2018-09-24T19:32:44.364Z,19.52
2018-09-24T19:35:10.382Z,19.50
2018-09-24T19:37:36.383Z,19.43
2018-09-24T19:40:02.479Z,19.49
2018-09-24T19:42:28.459Z,19.48
2018-09-24T19:44:54.452Z,19.47
2018-09-24T19:47:20.420Z,19.38
2018-09-24T19:49:46.399Z,19.39
2018-09-24T19:52:12.385Z,19.37
2018-09-24T19:54:38.364Z,19.39
2018-09-24T19:57:04.447Z,19.39
2018-09-24T19:59:30.388Z,19.36
2018-09-24T20:01:56.404Z,19.27
2018-09-24T20:04:22.298Z,19.25
2018-09-24T20:06:48.267Z,19.26
2018-09-24T20:09:14.242Z,19.11
2018-09-24T20:11:40.196Z,19.09
2018-09-24T20:14:06.169Z,19.04
2018-09-24T20:16:32.180Z,19.15
2018-09-24T20:18:58.181Z,19.16
2018-09-24T20:21:24.162Z,19.16
2018-09-24T20:23:50.153Z,19.09
2018-09-24T20:26:16.097Z,19.16
2018-09-24T20:28:42.083Z,19.24
2018-09-24T20:31:08.043Z,19.21
2018-09-24T20:33:34.010Z,19.24
2018-09-24T20:36:00.010Z,19.21
2018-09-24T20:38:26.029Z,19.24
2018-09-24T20:40:51.978Z,19.21
2018-09-24T20:43:17.954Z,19.11
2018-09-24T20:45:44.020Z,19.08
2018-09-24T20:48:09.977Z,19.03
2018-09-24T20:50:35.937Z,19.00
2018-09-24T20:53:01.893Z,18.97
2018-09-24T20:55:27.894Z,18.96
2018-09-24T20:57:53.834Z,19.05
2018-09-24T21:00:19.789Z,19.07
2018-09-24T21:02:45.733Z,19.06
2018-09-24T21:05:11.700Z,19.04
2018-09-24T21:07:37.685Z,18.95
2018-09-24T21:10:03.745Z,18.98
2018-09-24T21:12:29.710Z,19.00
2018-09-24T21:14:55.692Z,18.94
2018-09-24T21:17:21.654Z,18.93
2018-09-24T21:19:47.640Z,18.92
2018-09-24T21:22:13.656Z,18.86
2018-09-24T21:24:39.624Z,18.84
2018-09-24T21:27:05.574Z,18.91
2018-09-24T21:37:07.398Z,18.67
2018-09-24T21:39:33.378Z,18.63
2018-09-24T21:41:59.322Z,18.62
2018-09-24T21:44:25.331Z,18.63
2018-09-24T21:46:51.399Z,18.71
2018-09-24T21:49:17.304Z,18.72
2018-09-24T21:51:43.251Z,18.71
2018-09-24T21:54:09.221Z,18.70
2018-09-24T21:56:35.191Z,18.63
2018-09-24T21:59:01.145Z,18.62
2018-09-24T22:01:27.101Z,18.54
2018-09-24T22:03:53.914Z,18.50
2018-09-24T22:06:19.864Z,18.43
2018-09-24T22:08:45.824Z,18.44
2018-09-24T22:11:11.786Z,18.52
2018-09-24T22:13:37.729Z,18.55
2018-09-24T22:16:03.721Z,18.56
2018-09-24T22:18:29.679Z,18.49
2018-09-24T22:20:55.675Z,18.48
2018-09-24T22:23:21.613Z,18.46
2018-09-24T22:25:47.576Z,18.44
2018-09-24T22:28:13.506Z,18.43
2018-09-24T22:30:39.449Z,18.46
2018-09-24T22:33:05.407Z,18.45
2018-09-24T22:35:31.396Z,18.42
2018-09-24T22:37:57.341Z,18.47
2018-09-24T22:40:23.286Z,18.46
2018-09-24T22:42:49.233Z,18.37
2018-09-24T22:45:15.219Z,18.41
2018-09-24T22:47:41.182Z,18.27
2018-09-24T22:50:07.155Z,18.36
2018-09-24T22:52:33.098Z,18.32
2018-09-24T22:54:59.044Z,18.30
2018-09-24T22:57:24.967Z,18.35
2018-09-24T22:59:50.968Z,18.38
2018-09-24T23:02:16.901Z,18.34
2018-09-24T23:04:42.836Z,18.31
2018-09-24T23:07:08.778Z,18.27
2018-09-24T23:09:34.711Z,18.23
2018-09-24T23:12:00.654Z,18.25
2018-09-24T23:14:26.615Z,18.24
2018-09-24T23:16:52.553Z,18.27
2018-09-24T23:19:18.525Z,18.27
2018-09-24T23:21:44.471Z,18.10
2018-09-24T23:24:10.411Z,18.05
2018-09-24T23:26:36.372Z,18.06
2018-09-24T23:29:02.320Z,18.06
2018-09-24T23:31:28.292Z,18.04
2018-09-24T23:33:54.259Z,18.04
2018-09-24T23:36:20.221Z,18.03
2018-09-24T23:38:46.177Z,18.07
2018-09-24T23:41:12.123Z,18.11
2018-09-24T23:43:38.102Z,18.07
2018-09-24T23:46:04.052Z,18.04
2018-09-24T23:48:29.989Z,18.03
2018-09-24T23:50:55.961Z,18.13
2018-09-24T23:53:21.932Z,18.22
2018-09-24T23:55:47.876Z,18.21
2018-09-24T23:58:13.834Z,18.25
